createdAt,value
2022-08-14T00:02:03.091Z,50.85
2022-08-14T00:04:36.127Z,59.13
2022-08-14T00:07:13.800Z,59.00
2022-08-14T00:10:01.930Z,56.45
2022-08-14T00:12:39.451Z,51.47
2022-08-14T00:15:14.938Z,53.28
2022-08-14T00:17:48.406Z,52.10
2022-08-14T00:20:23.894Z,49.97
2022-08-14T00:22:58.414Z,48.88
2022-08-14T00:25:41.742Z,45.80
2022-08-14T00:28:10.869Z,52.22
2022-08-14T00:30:43.404Z,47.78
2022-08-14T00:33:16.017Z,45.35
2022-08-14T00:36:47.809Z,42.65
2022-08-14T00:38:35.139Z,46.35
2022-08-14T00:41:07.022Z,53.50
2022-08-14T00:43:43.154Z,52.70
2022-08-14T00:46:33.360Z,46.35
2022-08-14T00:49:02.045Z,46.50
2022-08-14T00:51:38.035Z,45.67
2022-08-14T00:54:21.229Z,46.40
2022-08-14T00:56:55.722Z,45.85
2022-08-14T00:59:28.591Z,47.95
2022-08-14T01:01:58.300Z,39.42
2022-08-14T01:04:51.215Z,45.97
2022-08-14T01:07:20.643Z,58.38
2022-08-14T01:09:52.611Z,43.78
2022-08-14T01:12:26.354Z,49.33
2022-08-14T01:14:55.489Z,48.15
2022-08-14T01:17:50.841Z,44.83
2022-08-14T01:20:40.714Z,42.47
2022-08-14T01:23:15.784Z,44.00
2022-08-14T01:25:46.366Z,47.15
2022-08-14T01:28:46.314Z,44.85
2022-08-14T01:31:02.140Z,38.40
2022-08-14T01:33:30.451Z,45.60
2022-08-14T01:36:21.085Z,39.92
2022-08-14T01:38:51.567Z,43.55
2022-08-14T01:41:23.037Z,50.10
2022-08-14T01:44:01.037Z,39.75
2022-08-14T01:46:33.538Z,41.70
2022-08-14T01:49:08.069Z,41.70
2022-08-14T01:51:36.547Z,44.97
2022-08-14T01:54:14.405Z,40.60
2022-08-14T01:56:42.874Z,45.85
2022-08-14T01:59:19.646Z,42.40
2022-08-14T02:01:58.078Z,38.35
2022-08-14T02:04:40.649Z,48.97
2022-08-14T02:07:34.318Z,42.92
2022-08-14T02:10:13.259Z,45.90
2022-08-14T02:12:44.089Z,46.72
2022-08-14T02:15:12.684Z,48.13
2022-08-14T02:17:42.968Z,50.67
2022-08-14T02:20:10.953Z,47.00
2022-08-14T02:22:47.288Z,48.15
2022-08-14T02:25:16.729Z,54.72
2022-08-14T02:28:24.820Z,50.35
2022-08-14T02:30:38.261Z,58.42
2022-08-14T02:33:09.410Z,52.42
2022-08-14T02:35:41.393Z,56.83
2022-08-14T02:38:29.387Z,61.85
2022-08-14T02:40:59.256Z,62.47
2022-08-14T02:43:36.755Z,67.57
2022-08-14T02:46:09.542Z,67.05
2022-08-14T02:49:04.523Z,65.38
2022-08-14T02:51:31.158Z,64.78
2022-08-14T02:54:01.833Z,60.38
2022-08-14T02:57:16.254Z,68.10
2022-08-14T02:59:19.678Z,63.72
2022-08-14T03:01:51.121Z,72.55
2022-08-14T03:04:22.909Z,61.97
2022-08-14T03:06:57.432Z,67.47
2022-08-14T03:09:41.998Z,74.35
2022-08-14T03:12:31.825Z,75.60
2022-08-14T03:15:14.211Z,99.45
2022-08-14T03:17:57.391Z,80.18
2022-08-14T03:22:53.833Z,69.93
2022-08-14T03:25:22.466Z,70.70
2022-08-14T03:27:59.006Z,71.72
2022-08-14T03:30:38.890Z,76.68
2022-08-14T03:33:12.515Z,75.78
2022-08-14T03:35:59.786Z,89.70
2022-08-14T03:39:12.322Z,64.15
2022-08-14T03:41:28.123Z,81.20
2022-08-14T03:45:25.561Z,72.22
2022-08-14T03:46:55.033Z,74.75
2022-08-14T03:49:29.218Z,80.05
2022-08-14T03:52:00.601Z,68.70
2022-08-14T03:54:29.679Z,86.30
2022-08-14T03:57:02.975Z,76.68
2022-08-14T03:59:32.683Z,80.25
2022-08-14T04:02:01.875Z,67.95
2022-08-14T04:04:31.046Z,98.80
2022-08-14T04:07:00.477Z,76.32
2022-08-14T04:09:29.352Z,84.13
2022-08-14T04:11:57.965Z,76.43
2022-08-14T04:14:28.997Z,61.17
2022-08-14T04:16:57.138Z,67.43
2022-08-14T04:19:24.843Z,65.70
2022-08-14T04:22:03.476Z,61.67
2022-08-14T04:24:39.114Z,79.68
2022-08-14T04:27:09.592Z,78.95
2022-08-14T04:29:42.636Z,75.60
2022-08-14T04:32:59.020Z,66.70
2022-08-14T04:35:01.681Z,71.60
2022-08-14T04:37:54.293Z,69.90
2022-08-14T04:40:40.904Z,58.83
2022-08-14T04:43:29.911Z,55.90
2022-08-14T04:46:11.908Z,51.90
2022-08-14T04:48:59.787Z,57.42
2022-08-14T04:51:28.189Z,56.67
2022-08-14T04:53:57.804Z,53.05
2022-08-14T04:56:30.578Z,54.85
2022-08-14T04:59:05.189Z,60.30
2022-08-14T05:01:45.287Z,57.40
2022-08-14T05:04:19.692Z,58.80
2022-08-14T05:06:49.332Z,56.72
2022-08-14T05:09:17.313Z,54.78
2022-08-14T05:11:45.087Z,53.88
2022-08-14T05:14:42.738Z,59.80
2022-08-14T05:17:02.410Z,60.17
2022-08-14T05:19:32.777Z,57.22
2022-08-14T05:22:17.519Z,54.08
2022-08-14T05:24:51.181Z,69.15
2022-08-14T05:27:23.279Z,60.35
2022-08-14T05:29:57.125Z,66.03
2022-08-14T05:32:27.314Z,70.25
2022-08-14T05:34:59.699Z,60.15
2022-08-14T05:37:29.667Z,60.20
2022-08-14T05:39:58.469Z,62.22
2022-08-14T05:42:31.873Z,64.03
2022-08-14T05:45:00.407Z,57.50
2022-08-14T05:47:33.765Z,53.45
2022-08-14T05:50:17.588Z,60.42
2022-08-14T05:52:48.305Z,70.03
2022-08-14T05:55:17.006Z,66.32
2022-08-14T05:57:50.681Z,72.53
2022-08-14T06:00:24.562Z,73.97
2022-08-14T06:02:57.261Z,71.30
2022-08-14T06:05:28.768Z,65.30
2022-08-14T06:07:58.513Z,68.63
2022-08-14T06:10:28.207Z,64.03
2022-08-14T06:12:58.103Z,63.97
2022-08-14T06:15:30.051Z,60.35
2022-08-14T06:17:59.855Z,59.00
2022-08-14T06:20:28.996Z,56.85
2022-08-14T06:22:59.007Z,54.97
2022-08-14T06:25:27.915Z,48.95
2022-08-14T06:27:55.998Z,56.95
2022-08-14T06:30:30.477Z,47.38
2022-08-14T06:33:15.722Z,46.47
2022-08-14T06:35:44.060Z,50.95
2022-08-14T06:38:17.449Z,49.55
2022-08-14T06:40:46.285Z,51.78
2022-08-14T06:43:15.590Z,42.83
2022-08-14T06:45:44.232Z,42.92
2022-08-14T06:48:23.692Z,44.53
2022-08-14T06:50:53.940Z,45.95
2022-08-14T06:53:22.219Z,41.95
2022-08-14T06:56:00.890Z,43.08
2022-08-14T06:58:31.826Z,52.00
2022-08-14T07:01:26.646Z,51.60
2022-08-14T07:04:22.886Z,42.10
2022-08-14T07:06:58.398Z,40.42
2022-08-14T07:09:43.501Z,36.95
2022-08-14T07:12:52.184Z,40.35
2022-08-14T07:15:05.621Z,38.05
2022-08-14T07:17:34.400Z,42.45
2022-08-14T07:20:05.064Z,39.30
2022-08-14T07:22:55.969Z,39.13
2022-08-14T07:25:32.327Z,36.55
2022-08-14T07:28:01.430Z,33.97
2022-08-14T07:30:34.078Z,31.98
2022-08-14T07:33:03.666Z,32.85
2022-08-14T07:35:42.832Z,31.00
2022-08-14T07:38:20.727Z,28.85
2022-08-14T07:40:49.077Z,30.38
2022-08-14T07:43:21.716Z,29.17
2022-08-14T07:45:53.970Z,29.88
2022-08-14T07:48:25.395Z,27.58
2022-08-14T07:51:02.134Z,28.55
2022-08-14T07:53:34.213Z,26.05
2022-08-14T07:56:21.726Z,27.77
2022-08-14T07:58:55.068Z,24.65
2022-08-14T08:01:30.973Z,23.55
2022-08-14T08:04:00.359Z,26.42
2022-08-14T08:06:29.991Z,26.08
2022-08-14T08:09:03.039Z,24.58
2022-08-14T08:11:37.342Z,24.40
2022-08-14T08:14:16.301Z,24.70
2022-08-14T08:16:51.176Z,24.15
2022-08-14T08:19:19.661Z,23.55
2022-08-14T08:21:47.805Z,17.77
2022-08-14T08:24:18.590Z,21.17
2022-08-14T08:26:50.301Z,21.30
2022-08-14T08:29:29.264Z,20.33
2022-08-14T08:32:01.681Z,20.20
2022-08-14T08:34:43.220Z,18.92
2022-08-14T08:37:11.256Z,18.38
2022-08-14T08:40:02.564Z,21.15
2022-08-14T08:42:38.591Z,18.88
2022-08-14T08:45:12.243Z,16.23
2022-08-14T08:47:40.994Z,17.40
2022-08-14T08:53:06.586Z,16.88
2022-08-14T08:55:39.301Z,15.43
2022-08-14T08:58:16.129Z,16.25
2022-08-14T09:00:49.418Z,14.20
2022-08-14T09:03:20.420Z,16.70
2022-08-14T09:08:26.516Z,14.15
2022-08-14T09:11:00.801Z,13.18
2022-08-14T09:13:30.648Z,11.65
2022-08-14T09:15:59.708Z,12.37
2022-08-14T09:18:28.031Z,15.48
2022-08-14T09:20:58.898Z,17.40
2022-08-14T09:23:34.846Z,17.05
2022-08-14T09:26:21.259Z,17.48
2022-08-14T09:28:49.887Z,20.23
2022-08-14T09:31:18.305Z,19.00
2022-08-14T09:33:57.542Z,19.15
2022-08-14T09:36:32.163Z,16.73
2022-08-14T09:39:22.782Z,18.85
2022-08-14T09:42:20.658Z,21.48
2022-08-14T09:44:49.668Z,18.77
2022-08-14T09:47:18.762Z,19.48
2022-08-14T09:49:53.068Z,19.55
2022-08-14T09:52:23.738Z,21.50
2022-08-14T09:55:03.323Z,22.45
2022-08-14T09:57:31.838Z,18.45
2022-08-14T09:59:59.630Z,22.52
2022-08-14T10:02:31.305Z,20.48
2022-08-14T10:05:10.164Z,20.98
2022-08-14T10:07:58.848Z,18.58
2022-08-14T10:10:34.996Z,19.13
2022-08-14T10:13:03.893Z,20.92
2022-08-14T10:15:33.592Z,21.00
2022-08-14T10:18:09.567Z,21.80
2022-08-14T10:20:57.785Z,17.50
2022-08-14T10:23:27.374Z,16.45
2022-08-14T10:26:05.890Z,18.67
2022-08-14T10:29:18.654Z,18.17
2022-08-14T10:31:57.100Z,19.02
2022-08-14T10:34:29.045Z,16.35
2022-08-14T10:37:04.015Z,19.55
2022-08-14T10:39:51.228Z,17.10
2022-08-14T10:42:38.022Z,16.15
2022-08-14T10:45:20.454Z,18.33
2022-08-14T10:48:09.594Z,18.42
2022-08-14T10:50:41.634Z,17.50
2022-08-14T10:53:10.394Z,18.55
2022-08-14T10:55:44.933Z,17.25
2022-08-14T10:58:14.928Z,15.63
2022-08-14T11:00:56.785Z,15.68
2022-08-14T11:03:26.848Z,15.07
2022-08-14T11:06:14.499Z,14.25
2022-08-14T11:08:43.146Z,16.25
2022-08-14T11:13:46.594Z,17.75
2022-08-14T11:16:15.960Z,16.67
2022-08-14T11:18:45.383Z,15.90
2022-08-14T11:21:23.411Z,14.93
2022-08-14T11:23:53.500Z,14.77
2022-08-14T11:26:24.355Z,15.52
2022-08-14T11:28:53.805Z,16.80
2022-08-14T11:31:26.024Z,16.33
2022-08-14T11:34:10.328Z,13.07
2022-08-14T11:37:03.728Z,14.48
2022-08-14T11:39:45.445Z,15.07
2022-08-14T11:43:07.845Z,14.48
2022-08-14T11:45:17.053Z,11.65
2022-08-14T11:48:12.654Z,16.58
2022-08-14T11:50:40.843Z,14.82
2022-08-14T11:53:21.857Z,16.83
2022-08-14T11:55:55.387Z,14.38
2022-08-14T11:58:25.707Z,13.35
2022-08-14T12:00:59.925Z,12.20
2022-08-14T12:03:52.190Z,16.42
2022-08-14T12:06:39.357Z,15.45
2022-08-14T12:09:08.652Z,12.60
2022-08-14T12:11:47.496Z,13.50
2022-08-14T12:14:34.617Z,13.18
2022-08-14T12:17:12.146Z,22.17
2022-08-14T12:19:53.940Z,13.95
2022-08-14T12:22:36.090Z,15.43
2022-08-14T12:25:11.228Z,14.63
2022-08-14T12:27:53.588Z,13.07
2022-08-14T12:30:34.446Z,14.68
2022-08-14T12:33:08.521Z,15.18
2022-08-14T12:35:39.735Z,13.25
2022-08-14T12:38:08.675Z,15.93
2022-08-14T12:40:51.575Z,13.18
2022-08-14T12:43:21.412Z,12.20
2022-08-14T12:45:50.266Z,11.55
2022-08-14T12:48:21.629Z,13.15
2022-08-14T12:50:59.518Z,14.80
2022-08-14T12:53:36.366Z,13.60
2022-08-14T12:56:21.293Z,13.40
2022-08-14T12:58:56.999Z,12.13
2022-08-14T13:01:27.337Z,16.45
2022-08-14T13:04:10.101Z,17.15
2022-08-14T13:06:38.601Z,15.60
2022-08-14T13:09:11.349Z,12.50
2022-08-14T13:11:45.206Z,15.55
2022-08-14T13:14:17.426Z,15.98
2022-08-14T13:16:50.530Z,13.45
2022-08-14T13:19:20.095Z,13.27
2022-08-14T13:22:05.212Z,14.15
2022-08-14T13:24:38.841Z,11.35
2022-08-14T13:27:10.080Z,14.38
2022-08-14T13:29:46.903Z,10.50
2022-08-14T13:32:16.292Z,10.38
2022-08-14T13:34:45.936Z,11.10
2022-08-14T13:37:15.361Z,12.52
2022-08-14T13:39:57.481Z,10.68
2022-08-14T13:42:30.850Z,11.60
2022-08-14T13:45:01.102Z,11.35
2022-08-14T13:47:30.288Z,10.20
2022-08-14T13:50:00.499Z,10.85
2022-08-14T13:52:52.583Z,9.50
2022-08-14T13:55:19.725Z,9.40
2022-08-14T13:57:59.466Z,11.20
2022-08-14T14:00:53.415Z,13.55
2022-08-14T14:03:23.465Z,10.48
2022-08-14T14:05:54.290Z,10.88
2022-08-14T14:08:46.430Z,14.82
2022-08-14T14:11:15.719Z,13.85
2022-08-14T14:13:45.360Z,9.80
2022-08-14T14:16:15.353Z,9.13
2022-08-14T14:18:53.038Z,13.15
2022-08-14T14:21:22.045Z,12.68
2022-08-14T14:23:51.670Z,20.30
2022-08-14T14:26:23.855Z,12.50
2022-08-14T14:28:56.548Z,11.32
2022-08-14T14:31:29.790Z,17.25
2022-08-14T14:34:07.337Z,10.52
2022-08-14T14:36:44.807Z,10.40
2022-08-14T14:39:20.164Z,10.10
2022-08-14T14:41:56.019Z,8.80
2022-08-14T14:44:32.039Z,12.30
2022-08-14T14:47:00.264Z,10.20
2022-08-14T14:49:51.105Z,7.38
2022-08-14T14:52:26.835Z,6.82
2022-08-14T14:54:59.744Z,6.65
2022-08-14T14:57:35.184Z,8.05
2022-08-14T15:00:21.997Z,12.40
2022-08-14T15:02:51.573Z,8.27
2022-08-14T15:05:20.203Z,8.18
2022-08-14T15:07:49.286Z,8.27
2022-08-14T15:10:28.055Z,11.98
2022-08-14T15:13:04.091Z,10.95
2022-08-14T15:15:33.242Z,8.75
2022-08-14T15:18:01.626Z,7.93
2022-08-14T15:20:30.406Z,9.52
2022-08-14T15:23:12.133Z,10.45
2022-08-14T15:25:41.722Z,7.43
2022-08-14T15:28:12.845Z,8.18
2022-08-14T15:30:41.154Z,8.55
2022-08-14T15:33:09.761Z,7.82
2022-08-14T15:35:38.004Z,6.35
2022-08-14T15:38:13.813Z,7.55
2022-08-14T15:40:51.696Z,7.53
2022-08-14T15:43:27.401Z,7.72
2022-08-14T15:45:59.272Z,7.85
2022-08-14T15:48:29.512Z,6.35
2022-08-14T15:50:57.591Z,10.00
2022-08-14T15:53:25.148Z,6.72
2022-08-14T15:55:59.399Z,7.95
2022-08-14T15:58:27.448Z,6.70
2022-08-14T16:01:26.452Z,6.97
2022-08-14T16:04:01.895Z,7.57
2022-08-14T16:06:33.448Z,7.07
2022-08-14T16:09:11.101Z,7.45
2022-08-14T16:11:39.090Z,7.10
2022-08-14T16:14:15.462Z,6.05
2022-08-14T16:17:00.783Z,5.80
2022-08-14T16:19:44.291Z,5.80
2022-08-14T16:22:58.987Z,6.45
2022-08-14T16:25:03.789Z,4.72
2022-08-14T16:27:33.644Z,5.07
2022-08-14T16:30:04.058Z,6.53
2022-08-14T16:32:36.102Z,5.22
2022-08-14T16:35:20.708Z,7.97
2022-08-14T16:37:48.523Z,5.03
2022-08-14T16:40:17.496Z,4.75
2022-08-14T16:43:02.888Z,5.90
2022-08-14T16:45:33.636Z,8.05
2022-08-14T16:48:01.404Z,7.53
2022-08-14T16:50:43.281Z,7.32
2022-08-14T16:53:17.286Z,7.60
2022-08-14T16:55:51.124Z,6.95
2022-08-14T16:58:27.132Z,8.27
2022-08-14T17:01:16.364Z,7.07
2022-08-14T17:04:04.699Z,9.50
2022-08-14T17:06:53.319Z,5.53
2022-08-14T17:09:27.747Z,5.72
2022-08-14T17:11:56.271Z,5.38
2022-08-14T17:14:25.637Z,6.05
2022-08-14T17:16:56.428Z,7.22
2022-08-14T17:19:24.752Z,7.18
2022-08-14T17:21:53.026Z,7.82
2022-08-14T17:24:56.282Z,6.22
2022-08-14T17:27:10.221Z,8.30
2022-08-14T17:29:54.264Z,9.00
2022-08-14T17:32:30.109Z,8.45
2022-08-14T17:35:16.664Z,8.57
2022-08-14T17:37:48.451Z,8.52
2022-08-14T17:40:25.925Z,11.57
2022-08-14T17:43:00.824Z,9.90
2022-08-14T17:45:39.112Z,8.55
2022-08-14T17:49:15.487Z,7.65
2022-08-14T17:51:14.225Z,8.57
2022-08-14T17:53:53.322Z,10.10
2022-08-14T17:56:30.968Z,9.82
2022-08-14T17:59:05.390Z,10.50
2022-08-14T18:01:37.807Z,10.55
2022-08-14T18:04:28.101Z,10.60
2022-08-14T18:07:09.996Z,8.32
2022-08-14T18:09:56.281Z,7.07
2022-08-14T18:12:31.951Z,7.10
2022-08-14T18:15:14.470Z,7.60
2022-08-14T18:17:44.946Z,7.30
2022-08-14T18:21:41.591Z,10.77
2022-08-14T18:23:08.495Z,9.05
2022-08-14T18:25:42.190Z,14.70
2022-08-14T18:28:17.964Z,11.00
2022-08-14T18:31:18.723Z,10.35
2022-08-14T18:33:53.170Z,21.50
2022-08-14T18:36:47.622Z,15.48
2022-08-14T18:39:23.965Z,13.65
2022-08-14T18:41:55.353Z,14.35
2022-08-14T18:44:46.287Z,11.70
2022-08-14T18:47:16.911Z,13.32
2022-08-14T18:49:57.988Z,12.18
2022-08-14T18:52:35.959Z,11.60
2022-08-14T18:55:18.518Z,10.88
2022-08-14T18:57:58.395Z,13.32
2022-08-14T19:00:43.399Z,13.43
2022-08-14T19:03:22.721Z,14.88
2022-08-14T19:05:51.024Z,12.75
2022-08-14T19:08:24.961Z,11.38
2022-08-14T19:10:54.590Z,13.98
2022-08-14T19:13:48.532Z,11.70
2022-08-14T19:16:22.844Z,11.38
2022-08-14T19:19:00.045Z,14.50
2022-08-14T19:21:40.908Z,13.77
2022-08-14T19:24:27.888Z,14.48
2022-08-14T19:27:19.015Z,13.40
2022-08-14T19:29:51.066Z,12.85
2022-08-14T19:32:36.837Z,12.85
2022-08-14T19:35:48.503Z,13.85
2022-08-14T19:38:47.863Z,12.70
2022-08-14T19:41:16.555Z,12.63
2022-08-14T19:43:55.345Z,11.68
2022-08-14T19:46:38.904Z,10.43
2022-08-14T19:49:23.028Z,11.15
2022-08-14T19:52:20.929Z,9.43
2022-08-14T19:54:50.493Z,10.38
2022-08-14T19:57:26.120Z,10.73
2022-08-14T20:00:28.331Z,9.88
2022-08-14T20:03:10.692Z,11.93
2022-08-14T20:05:46.005Z,14.40
2022-08-14T20:09:05.351Z,13.35
2022-08-14T20:11:20.984Z,11.25
2022-08-14T20:13:58.888Z,9.23
2022-08-14T20:16:35.443Z,8.13
2022-08-14T20:19:16.170Z,9.10
2022-08-14T20:22:04.590Z,8.23
2022-08-14T20:24:41.753Z,7.70
2022-08-14T20:27:24.758Z,8.80
2022-08-14T20:32:51.900Z,8.38
2022-08-14T20:35:25.123Z,10.77
2022-08-14T20:38:29.198Z,8.07
2022-08-14T20:41:00.225Z,8.60
2022-08-14T20:43:53.356Z,8.45
2022-08-14T20:46:30.148Z,8.52
2022-08-14T20:49:00.658Z,7.50
2022-08-14T20:51:36.605Z,10.20
2022-08-14T20:54:06.601Z,8.27
2022-08-14T20:56:37.185Z,7.78
2022-08-14T20:59:15.944Z,8.00
2022-08-14T21:01:51.672Z,8.13
2022-08-14T21:04:25.231Z,7.82
2022-08-14T21:07:25.215Z,9.80
2022-08-14T21:10:06.587Z,11.80
2022-08-14T21:12:35.002Z,8.55
2022-08-14T21:15:10.075Z,8.25
2022-08-14T21:17:41.494Z,8.27
2022-08-14T21:20:25.768Z,7.53
2022-08-14T21:23:00.560Z,7.82
2022-08-14T21:25:31.753Z,8.93
2022-08-14T21:28:01.712Z,8.60
2022-08-14T21:30:47.106Z,7.97
2022-08-14T21:33:21.612Z,8.85
2022-08-14T21:35:54.767Z,8.88
2022-08-14T21:38:34.184Z,10.95
2022-08-14T21:41:41.398Z,10.75
2022-08-14T21:44:05.243Z,10.70
2022-08-14T21:47:07.681Z,13.80
2022-08-14T21:49:38.603Z,14.63
2022-08-14T21:52:50.239Z,11.23
2022-08-14T21:54:57.491Z,11.95
2022-08-14T21:58:51.356Z,10.68
2022-08-14T22:00:34.656Z,12.18
2022-08-14T22:03:04.095Z,11.52
2022-08-14T22:05:32.637Z,12.57
2022-08-14T22:08:02.697Z,9.18
2022-08-14T22:10:30.752Z,8.73
2022-08-14T22:13:01.612Z,10.55
2022-08-14T22:15:30.533Z,14.77
2022-08-14T22:17:58.621Z,11.07
2022-08-14T22:20:32.534Z,13.00
2022-08-14T22:23:04.337Z,13.57
2022-08-14T22:25:40.959Z,11.90
2022-08-14T22:28:11.528Z,13.65
2022-08-14T22:30:39.594Z,10.45
2022-08-14T22:33:13.307Z,14.73
2022-08-14T22:35:41.582Z,10.93
2022-08-14T22:38:35.800Z,11.27
2022-08-14T22:41:25.947Z,10.85
2022-08-14T22:43:51.878Z,13.48
2022-08-14T22:46:21.502Z,11.60
2022-08-14T22:48:49.714Z,12.05
2022-08-14T22:51:19.252Z,12.88
2022-08-14T22:53:48.679Z,12.85
2022-08-14T22:56:21.899Z,13.60
2022-08-14T22:58:53.730Z,10.23
2022-08-14T23:01:25.463Z,11.90
2022-08-14T23:04:13.315Z,11.38
2022-08-14T23:07:04.701Z,14.82
2022-08-14T23:09:36.128Z,14.25
2022-08-14T23:12:13.226Z,12.60
2022-08-14T23:14:55.082Z,11.02
2022-08-14T23:17:22.696Z,16.75
2022-08-14T23:19:56.657Z,12.57
2022-08-14T23:22:26.055Z,11.75
2022-08-14T23:24:57.762Z,12.38
2022-08-14T23:27:31.877Z,12.98
2022-08-14T23:30:31.710Z,15.40
2022-08-14T23:33:03.230Z,14.48
2022-08-14T23:35:33.152Z,13.50
2022-08-14T23:38:02.491Z,13.45
2022-08-14T23:40:31.364Z,14.30
2022-08-14T23:43:02.341Z,13.95
2022-08-14T23:45:37.015Z,15.18
2022-08-14T23:48:05.692Z,16.05
2022-08-14T23:50:39.455Z,13.73
2022-08-14T23:53:27.955Z,12.73
2022-08-14T23:55:57.586Z,14.50
2022-08-14T23:58:29.605Z,13.75
